sensor_id;sensor_type;location;lat;lon;timestamp;P1;durP1;ratioP1;P2;durP2;ratioP2
7231;SDS011;3657;49.630;11.018;2022-12-18T00:00:42;67.13;;;52.73;;
7231;SDS011;3657;49.630;11.018;2022-12-18T00:03:11;71.20;;;51.37;;
7231;SDS011;3657;49.630;11.018;2022-12-18T00:05:46;70.13;;;52.33;;
7231;SDS011;3657;49.630;11.018;2022-12-18T00:08:13;73.97;;;51.97;;
7231;SDS011;3657;49.630;11.018;2022-12-18T00:10:41;71.07;;;52.03;;
7231;SDS011;3657;49.630;11.018;2022-12-18T00:13:07;73.47;;;52.37;;
7231;SDS011;3657;49.630;11.018;2022-12-18T00:15:34;73.90;;;53.07;;
7231;SDS011;3657;49.630;11.018;2022-12-18T00:18:01;70.57;;;53.13;;
7231;SDS011;3657;49.630;11.018;2022-12-18T00:20:28;67.70;;;50.83;;
7231;SDS011;3657;49.630;11.018;2022-12-18T00:22:56;73.30;;;51.50;;
7231;SDS011;3657;49.630;11.018;2022-12-18T00:25:23;69.43;;;50.67;;
7231;SDS011;3657;49.630;11.018;2022-12-18T00:27:50;66.17;;;50.47;;
7231;SDS011;3657;49.630;11.018;2022-12-18T00:30:16;66.47;;;49.47;;
7231;SDS011;3657;49.630;11.018;2022-12-18T00:32:43;68.43;;;49.83;;
7231;SDS011;3657;49.630;11.018;2022-12-18T00:35:10;64.40;;;48.90;;
7231;SDS011;3657;49.630;11.018;2022-12-18T00:37:37;64.03;;;48.93;;
7231;SDS011;3657;49.630;11.018;2022-12-18T00:40:05;64.47;;;48.07;;
7231;SDS011;3657;49.630;11.018;2022-12-18T00:42:33;67.50;;;49.27;;
7231;SDS011;3657;49.630;11.018;2022-12-18T00:45:23;70.13;;;51.70;;
7231;SDS011;3657;49.630;11.018;2022-12-18T00:47:50;66.23;;;50.03;;
7231;SDS011;3657;49.630;11.018;2022-12-18T00:50:17;65.23;;;48.83;;
7231;SDS011;3657;49.630;11.018;2022-12-18T00:52:44;66.40;;;50.83;;
7231;SDS011;3657;49.630;11.018;2022-12-18T00:55:12;66.60;;;48.57;;
7231;SDS011;3657;49.630;11.018;2022-12-18T00:57:40;65.03;;;50.33;;
7231;SDS011;3657;49.630;11.018;2022-12-18T01:00:08;63.47;;;48.90;;
7231;SDS011;3657;49.630;11.018;2022-12-18T01:02:36;64.27;;;47.63;;
7231;SDS011;3657;49.630;11.018;2022-12-18T01:05:03;61.57;;;47.97;;
7231;SDS011;3657;49.630;11.018;2022-12-18T01:07:30;58.00;;;45.83;;
7231;SDS011;3657;49.630;11.018;2022-12-18T01:09:57;59.47;;;47.27;;
7231;SDS011;3657;49.630;11.018;2022-12-18T01:12:25;58.57;;;44.10;;
7231;SDS011;3657;49.630;11.018;2022-12-18T01:14:52;59.77;;;45.90;;
7231;SDS011;3657;49.630;11.018;2022-12-18T01:17:18;61.43;;;46.03;;
7231;SDS011;3657;49.630;11.018;2022-12-18T01:19:45;60.40;;;47.57;;
7231;SDS011;3657;49.630;11.018;2022-12-18T01:22:12;61.33;;;46.20;;
7231;SDS011;3657;49.630;11.018;2022-12-18T01:24:38;59.43;;;45.07;;
7231;SDS011;3657;49.630;11.018;2022-12-18T01:27:05;55.70;;;44.30;;
7231;SDS011;3657;49.630;11.018;2022-12-18T01:29:33;58.43;;;45.53;;
7231;SDS011;3657;49.630;11.018;2022-12-18T01:32:00;57.83;;;43.67;;
7231;SDS011;3657;49.630;11.018;2022-12-18T01:34:26;60.33;;;46.37;;
7231;SDS011;3657;49.630;11.018;2022-12-18T01:36:53;59.80;;;44.50;;
7231;SDS011;3657;49.630;11.018;2022-12-18T01:39:20;58.93;;;44.30;;
7231;SDS011;3657;49.630;11.018;2022-12-18T01:41:46;60.57;;;46.27;;
7231;SDS011;3657;49.630;11.018;2022-12-18T01:47:29;64.43;;;47.67;;
7231;SDS011;3657;49.630;11.018;2022-12-18T01:49:59;57.13;;;45.33;;
7231;SDS011;3657;49.630;11.018;2022-12-18T01:52:29;61.50;;;46.47;;
7231;SDS011;3657;49.630;11.018;2022-12-18T01:54:57;62.80;;;48.03;;
7231;SDS011;3657;49.630;11.018;2022-12-18T01:57:26;64.20;;;47.50;;
7231;SDS011;3657;49.630;11.018;2022-12-18T01:59:56;62.77;;;48.87;;
7231;SDS011;3657;49.630;11.018;2022-12-18T02:02:27;62.67;;;47.77;;
7231;SDS011;3657;49.630;11.018;2022-12-18T02:04:55;61.23;;;46.83;;
7231;SDS011;3657;49.630;11.018;2022-12-18T02:07:23;69.03;;;49.70;;
7231;SDS011;3657;49.630;11.018;2022-12-18T02:09:57;63.13;;;49.07;;
7231;SDS011;3657;49.630;11.018;2022-12-18T02:12:29;60.13;;;45.90;;
7231;SDS011;3657;49.630;11.018;2022-12-18T02:15:07;64.37;;;49.10;;
7231;SDS011;3657;49.630;11.018;2022-12-18T02:17:42;67.40;;;49.33;;
7231;SDS011;3657;49.630;11.018;2022-12-18T02:20:14;59.67;;;46.40;;
7231;SDS011;3657;49.630;11.018;2022-12-18T02:22:49;64.67;;;47.73;;
7231;SDS011;3657;49.630;11.018;2022-12-18T02:25:34;64.50;;;47.33;;
7231;SDS011;3657;49.630;11.018;2022-12-18T02:28:19;64.50;;;49.23;;
7231;SDS011;3657;49.630;11.018;2022-12-18T02:30:49;68.03;;;49.23;;
7231;SDS011;3657;49.630;11.018;2022-12-18T02:33:19;59.20;;;45.60;;
7231;SDS011;3657;49.630;11.018;2022-12-18T02:35:49;64.60;;;48.30;;
7231;SDS011;3657;49.630;11.018;2022-12-18T02:38:18;64.87;;;48.17;;
7231;SDS011;3657;49.630;11.018;2022-12-18T02:40:45;64.40;;;49.07;;
7231;SDS011;3657;49.630;11.018;2022-12-18T02:43:15;63.23;;;45.90;;
7231;SDS011;3657;49.630;11.018;2022-12-18T02:45:48;66.00;;;48.00;;
7231;SDS011;3657;49.630;11.018;2022-12-18T02:48:17;63.07;;;47.10;;
7231;SDS011;3657;49.630;11.018;2022-12-18T02:50:50;65.47;;;48.53;;
7231;SDS011;3657;49.630;11.018;2022-12-18T02:53:23;62.27;;;47.43;;
7231;SDS011;3657;49.630;11.018;2022-12-18T02:55:57;64.70;;;47.90;;
7231;SDS011;3657;49.630;11.018;2022-12-18T02:58:31;63.87;;;46.37;;
7231;SDS011;3657;49.630;11.018;2022-12-18T03:01:09;66.47;;;48.60;;
7231;SDS011;3657;49.630;11.018;2022-12-18T03:03:42;65.33;;;48.03;;
7231;SDS011;3657;49.630;11.018;2022-12-18T03:06:14;65.67;;;50.07;;
7231;SDS011;3657;49.630;11.018;2022-12-18T03:08:47;65.47;;;49.67;;
7231;SDS011;3657;49.630;11.018;2022-12-18T03:11:19;66.53;;;49.27;;
7231;SDS011;3657;49.630;11.018;2022-12-18T03:14:06;67.63;;;50.93;;
7231;SDS011;3657;49.630;11.018;2022-12-18T03:16:34;64.20;;;47.83;;
7231;SDS011;3657;49.630;11.018;2022-12-18T03:19:03;66.50;;;50.03;;
7231;SDS011;3657;49.630;11.018;2022-12-18T03:21:34;67.07;;;49.80;;
7231;SDS011;3657;49.630;11.018;2022-12-18T03:24:04;62.80;;;49.40;;
7231;SDS011;3657;49.630;11.018;2022-12-18T03:26:34;66.40;;;49.97;;
7231;SDS011;3657;49.630;11.018;2022-12-18T03:29:03;72.77;;;51.00;;
7231;SDS011;3657;49.630;11.018;2022-12-18T03:31:35;71.10;;;50.97;;
7231;SDS011;3657;49.630;11.018;2022-12-18T03:34:08;69.63;;;51.47;;
7231;SDS011;3657;49.630;11.018;2022-12-18T03:36:39;67.70;;;50.57;;
7231;SDS011;3657;49.630;11.018;2022-12-18T03:39:06;68.07;;;51.27;;
7231;SDS011;3657;49.630;11.018;2022-12-18T03:41:33;69.13;;;53.03;;
7231;SDS011;3657;49.630;11.018;2022-12-18T03:44:09;68.27;;;50.83;;
7231;SDS011;3657;49.630;11.018;2022-12-18T03:46:40;66.10;;;50.00;;
7231;SDS011;3657;49.630;11.018;2022-12-18T03:49:14;74.40;;;51.00;;
7231;SDS011;3657;49.630;11.018;2022-12-18T03:51:48;68.37;;;50.53;;
7231;SDS011;3657;49.630;11.018;2022-12-18T03:54:18;60.93;;;48.70;;
7231;SDS011;3657;49.630;11.018;2022-12-18T03:56:47;66.73;;;49.10;;
7231;SDS011;3657;49.630;11.018;2022-12-18T03:59:22;62.47;;;47.90;;
7231;SDS011;3657;49.630;11.018;2022-12-18T04:01:50;70.43;;;51.03;;
7231;SDS011;3657;49.630;11.018;2022-12-18T04:04:20;70.10;;;50.33;;
7231;SDS011;3657;49.630;11.018;2022-12-18T04:06:49;65.23;;;50.63;;
7231;SDS011;3657;49.630;11.018;2022-12-18T04:09:16;65.27;;;50.07;;
7231;SDS011;3657;49.630;11.018;2022-12-18T04:11:44;69.17;;;50.93;;
7231;SDS011;3657;49.630;11.018;2022-12-18T04:14:12;64.90;;;49.47;;
7231;SDS011;3657;49.630;11.018;2022-12-18T04:16:41;68.43;;;50.33;;
7231;SDS011;3657;49.630;11.018;2022-12-18T04:19:08;68.40;;;50.37;;
7231;SDS011;3657;49.630;11.018;2022-12-18T04:21:35;63.13;;;48.47;;
7231;SDS011;3657;49.630;11.018;2022-12-18T04:24:01;66.70;;;49.87;;
7231;SDS011;3657;49.630;11.018;2022-12-18T04:26:28;65.20;;;48.53;;
7231;SDS011;3657;49.630;11.018;2022-12-18T04:28:55;67.97;;;49.57;;
7231;SDS011;3657;49.630;11.018;2022-12-18T04:31:22;63.87;;;47.83;;
7231;SDS011;3657;49.630;11.018;2022-12-18T04:33:50;62.40;;;47.70;;
7231;SDS011;3657;49.630;11.018;2022-12-18T04:36:16;66.23;;;48.50;;
7231;SDS011;3657;49.630;11.018;2022-12-18T04:38:43;58.37;;;47.13;;
7231;SDS011;3657;49.630;11.018;2022-12-18T04:41:10;67.20;;;49.47;;
7231;SDS011;3657;49.630;11.018;2022-12-18T04:43:36;59.00;;;45.27;;
7231;SDS011;3657;49.630;11.018;2022-12-18T04:46:03;59.33;;;46.47;;
7231;SDS011;3657;49.630;11.018;2022-12-18T04:48:31;61.17;;;46.17;;
7231;SDS011;3657;49.630;11.018;2022-12-18T04:50:59;61.67;;;44.17;;
7231;SDS011;3657;49.630;11.018;2022-12-18T04:53:26;54.43;;;43.23;;
7231;SDS011;3657;49.630;11.018;2022-12-18T04:56:02;60.73;;;45.63;;
7231;SDS011;3657;49.630;11.018;2022-12-18T04:58:33;58.20;;;43.43;;
7231;SDS011;3657;49.630;11.018;2022-12-18T05:01:00;60.50;;;44.97;;
7231;SDS011;3657;49.630;11.018;2022-12-18T05:03:27;57.73;;;41.73;;
7231;SDS011;3657;49.630;11.018;2022-12-18T05:05:54;58.37;;;44.27;;
7231;SDS011;3657;49.630;11.018;2022-12-18T05:08:22;54.30;;;41.37;;
7231;SDS011;3657;49.630;11.018;2022-12-18T05:10:49;55.93;;;42.50;;
7231;SDS011;3657;49.630;11.018;2022-12-18T05:13:15;51.53;;;39.27;;
7231;SDS011;3657;49.630;11.018;2022-12-18T05:15:42;56.13;;;41.07;;
7231;SDS011;3657;49.630;11.018;2022-12-18T05:18:16;54.20;;;40.90;;
7231;SDS011;3657;49.630;11.018;2022-12-18T05:20:43;55.13;;;40.60;;
7231;SDS011;3657;49.630;11.018;2022-12-18T05:23:10;50.17;;;39.60;;
7231;SDS011;3657;49.630;11.018;2022-12-18T05:25:38;51.87;;;39.67;;
7231;SDS011;3657;49.630;11.018;2022-12-18T05:28:04;47.77;;;37.60;;
7231;SDS011;3657;49.630;11.018;2022-12-18T05:30:31;54.47;;;39.57;;
7231;SDS011;3657;49.630;11.018;2022-12-18T05:32:58;51.57;;;39.03;;
7231;SDS011;3657;49.630;11.018;2022-12-18T05:35:25;51.40;;;39.37;;
7231;SDS011;3657;49.630;11.018;2022-12-18T05:37:51;52.87;;;38.67;;
7231;SDS011;3657;49.630;11.018;2022-12-18T05:40:18;51.10;;;40.17;;
7231;SDS011;3657;49.630;11.018;2022-12-18T05:42:46;51.93;;;40.03;;
7231;SDS011;3657;49.630;11.018;2022-12-18T05:45:13;50.93;;;37.93;;
7231;SDS011;3657;49.630;11.018;2022-12-18T05:47:39;49.10;;;39.13;;
7231;SDS011;3657;49.630;11.018;2022-12-18T05:50:07;50.40;;;39.40;;
7231;SDS011;3657;49.630;11.018;2022-12-18T05:52:34;56.37;;;40.63;;
7231;SDS011;3657;49.630;11.018;2022-12-18T05:55:00;52.67;;;39.83;;
7231;SDS011;3657;49.630;11.018;2022-12-18T05:57:27;53.17;;;39.53;;
7231;SDS011;3657;49.630;11.018;2022-12-18T05:59:55;50.17;;;39.30;;
7231;SDS011;3657;49.630;11.018;2022-12-18T06:02:22;54.13;;;41.53;;
7231;SDS011;3657;49.630;11.018;2022-12-18T06:04:49;58.70;;;44.13;;
7231;SDS011;3657;49.630;11.018;2022-12-18T06:07:15;49.03;;;39.20;;
7231;SDS011;3657;49.630;11.018;2022-12-18T06:09:42;49.90;;;40.03;;
7231;SDS011;3657;49.630;11.018;2022-12-18T06:12:09;54.10;;;41.33;;
7231;SDS011;3657;49.630;11.018;2022-12-18T06:14:36;53.40;;;40.80;;
7231;SDS011;3657;49.630;11.018;2022-12-18T06:17:05;51.13;;;39.53;;
7231;SDS011;3657;49.630;11.018;2022-12-18T06:19:31;47.53;;;38.77;;
7231;SDS011;3657;49.630;11.018;2022-12-18T06:21:58;47.60;;;38.67;;
7231;SDS011;3657;49.630;11.018;2022-12-18T06:24:25;47.77;;;38.03;;
7231;SDS011;3657;49.630;11.018;2022-12-18T06:26:52;46.43;;;36.53;;
7231;SDS011;3657;49.630;11.018;2022-12-18T06:29:19;58.40;;;43.10;;
7231;SDS011;3657;49.630;11.018;2022-12-18T06:31:45;54.03;;;40.27;;
7231;SDS011;3657;49.630;11.018;2022-12-18T06:34:13;57.37;;;43.47;;
7231;SDS011;3657;49.630;11.018;2022-12-18T06:36:40;45.97;;;36.60;;
7231;SDS011;3657;49.630;11.018;2022-12-18T06:39:07;51.37;;;40.77;;
7231;SDS011;3657;49.630;11.018;2022-12-18T06:41:33;55.47;;;39.77;;
7231;SDS011;3657;49.630;11.018;2022-12-18T06:44:00;45.80;;;37.07;;
7231;SDS011;3657;49.630;11.018;2022-12-18T06:46:27;49.50;;;36.90;;
7231;SDS011;3657;49.630;11.018;2022-12-18T06:48:53;43.30;;;34.73;;
7231;SDS011;3657;49.630;11.018;2022-12-18T06:51:22;43.83;;;35.97;;
7231;SDS011;3657;49.630;11.018;2022-12-18T06:53:49;81.87;;;53.97;;
7231;SDS011;3657;49.630;11.018;2022-12-18T06:56:17;50.00;;;37.07;;
7231;SDS011;3657;49.630;11.018;2022-12-18T06:58:43;52.23;;;40.03;;
7231;SDS011;3657;49.630;11.018;2022-12-18T07:01:10;51.73;;;39.17;;
7231;SDS011;3657;49.630;11.018;2022-12-18T07:03:38;46.77;;;34.30;;
7231;SDS011;3657;49.630;11.018;2022-12-18T07:06:06;42.53;;;34.33;;
7231;SDS011;3657;49.630;11.018;2022-12-18T07:08:40;39.60;;;32.73;;
7231;SDS011;3657;49.630;11.018;2022-12-18T07:11:06;41.07;;;31.40;;
7231;SDS011;3657;49.630;11.018;2022-12-18T07:13:33;35.80;;;30.10;;
7231;SDS011;3657;49.630;11.018;2022-12-18T07:16:07;34.80;;;29.57;;
7231;SDS011;3657;49.630;11.018;2022-12-18T07:18:35;36.50;;;28.97;;
7231;SDS011;3657;49.630;11.018;2022-12-18T07:21:05;47.70;;;35.70;;
7231;SDS011;3657;49.630;11.018;2022-12-18T07:23:32;46.40;;;37.30;;
7231;SDS011;3657;49.630;11.018;2022-12-18T07:26:02;37.63;;;29.50;;
7231;SDS011;3657;49.630;11.018;2022-12-18T07:28:30;39.73;;;30.90;;
7231;SDS011;3657;49.630;11.018;2022-12-18T07:30:57;44.07;;;35.90;;
7231;SDS011;3657;49.630;11.018;2022-12-18T07:33:24;33.80;;;29.73;;
7231;SDS011;3657;49.630;11.018;2022-12-18T07:35:51;45.10;;;34.70;;
7231;SDS011;3657;49.630;11.018;2022-12-18T07:38:18;31.63;;;27.47;;
7231;SDS011;3657;49.630;11.018;2022-12-18T07:40:45;33.43;;;28.83;;
7231;SDS011;3657;49.630;11.018;2022-12-18T07:43:13;28.80;;;25.23;;
7231;SDS011;3657;49.630;11.018;2022-12-18T07:45:39;51.93;;;36.60;;
7231;SDS011;3657;49.630;11.018;2022-12-18T07:48:06;51.77;;;38.73;;
7231;SDS011;3657;49.630;11.018;2022-12-18T07:50:33;71.67;;;50.17;;
7231;SDS011;3657;49.630;11.018;2022-12-18T07:52:59;82.27;;;62.27;;
7231;SDS011;3657;49.630;11.018;2022-12-18T07:55:28;32.53;;;26.43;;
7231;SDS011;3657;49.630;11.018;2022-12-18T07:57:55;30.23;;;25.77;;
7231;SDS011;3657;49.630;11.018;2022-12-18T08:00:23;27.40;;;24.50;;
7231;SDS011;3657;49.630;11.018;2022-12-18T08:02:49;30.17;;;26.53;;
7231;SDS011;3657;49.630;11.018;2022-12-18T08:05:16;32.03;;;27.20;;
7231;SDS011;3657;49.630;11.018;2022-12-18T08:07:43;51.93;;;37.03;;
7231;SDS011;3657;49.630;11.018;2022-12-18T08:10:10;31.73;;;25.53;;
7231;SDS011;3657;49.630;11.018;2022-12-18T08:12:37;28.50;;;23.53;;
7231;SDS011;3657;49.630;11.018;2022-12-18T08:15:04;27.43;;;24.40;;
7231;SDS011;3657;49.630;11.018;2022-12-18T08:17:32;31.97;;;26.27;;
7231;SDS011;3657;49.630;11.018;2022-12-18T08:19:59;50.77;;;35.40;;
7231;SDS011;3657;49.630;11.018;2022-12-18T08:22:26;57.43;;;38.83;;
7231;SDS011;3657;49.630;11.018;2022-12-18T08:24:52;76.07;;;48.47;;
7231;SDS011;3657;49.630;11.018;2022-12-18T08:27:19;53.77;;;37.57;;
7231;SDS011;3657;49.630;11.018;2022-12-18T08:29:46;35.27;;;27.77;;
7231;SDS011;3657;49.630;11.018;2022-12-18T08:32:13;30.93;;;25.37;;
7231;SDS011;3657;49.630;11.018;2022-12-18T08:34:41;35.97;;;29.00;;
7231;SDS011;3657;49.630;11.018;2022-12-18T08:37:07;46.77;;;33.60;;
7231;SDS011;3657;49.630;11.018;2022-12-18T08:39:34;37.07;;;27.87;;
7231;SDS011;3657;49.630;11.018;2022-12-18T08:42:01;43.80;;;31.30;;
7231;SDS011;3657;49.630;11.018;2022-12-18T08:44:45;25.97;;;22.23;;
7231;SDS011;3657;49.630;11.018;2022-12-18T08:47:12;47.10;;;35.23;;
7231;SDS011;3657;49.630;11.018;2022-12-18T08:49:38;50.57;;;37.17;;
7231;SDS011;3657;49.630;11.018;2022-12-18T08:52:06;27.27;;;23.67;;
7231;SDS011;3657;49.630;11.018;2022-12-18T08:54:33;30.50;;;26.27;;
7231;SDS011;3657;49.630;11.018;2022-12-18T08:57:00;28.87;;;23.63;;
7231;SDS011;3657;49.630;11.018;2022-12-18T08:59:27;30.23;;;23.57;;
7231;SDS011;3657;49.630;11.018;2022-12-18T09:01:54;31.43;;;24.47;;
7231;SDS011;3657;49.630;11.018;2022-12-18T09:04:20;25.17;;;21.83;;
7231;SDS011;3657;49.630;11.018;2022-12-18T09:06:48;34.93;;;27.30;;
7231;SDS011;3657;49.630;11.018;2022-12-18T09:09:15;28.70;;;24.10;;
7231;SDS011;3657;49.630;11.018;2022-12-18T09:11:42;26.53;;;21.47;;
7231;SDS011;3657;49.630;11.018;2022-12-18T09:14:09;27.53;;;24.40;;
7231;SDS011;3657;49.630;11.018;2022-12-18T09:16:36;22.87;;;20.37;;
7231;SDS011;3657;49.630;11.018;2022-12-18T09:19:04;45.97;;;33.80;;
7231;SDS011;3657;49.630;11.018;2022-12-18T09:21:32;57.73;;;40.47;;
7231;SDS011;3657;49.630;11.018;2022-12-18T09:24:01;37.40;;;28.70;;
7231;SDS011;3657;49.630;11.018;2022-12-18T09:26:28;29.70;;;25.07;;
7231;SDS011;3657;49.630;11.018;2022-12-18T09:28:55;53.70;;;38.37;;
7231;SDS011;3657;49.630;11.018;2022-12-18T09:31:22;47.67;;;34.90;;
7231;SDS011;3657;49.630;11.018;2022-12-18T09:33:50;35.47;;;28.03;;
7231;SDS011;3657;49.630;11.018;2022-12-18T09:36:17;55.30;;;40.07;;
7231;SDS011;3657;49.630;11.018;2022-12-18T09:38:44;57.83;;;41.90;;
7231;SDS011;3657;49.630;11.018;2022-12-18T09:41:23;38.87;;;28.67;;
7231;SDS011;3657;49.630;11.018;2022-12-18T09:44:04;56.40;;;38.13;;
7231;SDS011;3657;49.630;11.018;2022-12-18T09:46:40;74.83;;;51.93;;
7231;SDS011;3657;49.630;11.018;2022-12-18T09:49:14;52.37;;;35.10;;
7231;SDS011;3657;49.630;11.018;2022-12-18T09:51:43;51.27;;;34.70;;
7231;SDS011;3657;49.630;11.018;2022-12-18T09:54:14;51.37;;;34.20;;
7231;SDS011;3657;49.630;11.018;2022-12-18T09:56:46;46.87;;;34.10;;
7231;SDS011;3657;49.630;11.018;2022-12-18T09:59:16;48.10;;;32.57;;
7231;SDS011;3657;49.630;11.018;2022-12-18T10:01:47;53.97;;;33.97;;
7231;SDS011;3657;49.630;11.018;2022-12-18T10:04:14;49.43;;;33.87;;
7231;SDS011;3657;49.630;11.018;2022-12-18T10:06:42;47.87;;;31.83;;
7231;SDS011;3657;49.630;11.018;2022-12-18T10:09:15;49.40;;;32.10;;
7231;SDS011;3657;49.630;11.018;2022-12-18T10:11:53;46.73;;;31.87;;
7231;SDS011;3657;49.630;11.018;2022-12-18T10:14:30;46.33;;;31.17;;
7231;SDS011;3657;49.630;11.018;2022-12-18T10:17:05;43.17;;;30.53;;
7231;SDS011;3657;49.630;11.018;2022-12-18T10:19:41;41.53;;;29.27;;
7231;SDS011;3657;49.630;11.018;2022-12-18T10:22:17;48.03;;;31.70;;
7231;SDS011;3657;49.630;11.018;2022-12-18T10:25:15;46.13;;;29.63;;
7231;SDS011;3657;49.630;11.018;2022-12-18T10:27:48;35.77;;;26.83;;
7231;SDS011;3657;49.630;11.018;2022-12-18T10:30:20;37.67;;;27.83;;
7231;SDS011;3657;49.630;11.018;2022-12-18T10:32:48;44.10;;;29.80;;
7231;SDS011;3657;49.630;11.018;2022-12-18T10:35:17;40.73;;;29.40;;
7231;SDS011;3657;49.630;11.018;2022-12-18T10:38:07;38.43;;;26.60;;
7231;SDS011;3657;49.630;11.018;2022-12-18T10:40:48;32.90;;;25.47;;
7231;SDS011;3657;49.630;11.018;2022-12-18T10:43:20;37.57;;;28.00;;
7231;SDS011;3657;49.630;11.018;2022-12-18T10:46:03;38.00;;;27.37;;
7231;SDS011;3657;49.630;11.018;2022-12-18T10:48:39;33.03;;;26.00;;
7231;SDS011;3657;49.630;11.018;2022-12-18T10:51:18;34.60;;;25.93;;
7231;SDS011;3657;49.630;11.018;2022-12-18T10:53:50;37.07;;;26.10;;
7231;SDS011;3657;49.630;11.018;2022-12-18T10:56:20;37.17;;;27.50;;
7231;SDS011;3657;49.630;11.018;2022-12-18T10:58:55;32.87;;;26.47;;
7231;SDS011;3657;49.630;11.018;2022-12-18T11:01:23;33.50;;;24.83;;
7231;SDS011;3657;49.630;11.018;2022-12-18T11:03:58;34.23;;;25.77;;
7231;SDS011;3657;49.630;11.018;2022-12-18T11:06:26;37.97;;;26.50;;
7231;SDS011;3657;49.630;11.018;2022-12-18T11:08:57;36.97;;;25.83;;
7231;SDS011;3657;49.630;11.018;2022-12-18T11:11:25;33.23;;;24.73;;
7231;SDS011;3657;49.630;11.018;2022-12-18T11:13:57;35.07;;;24.37;;
7231;SDS011;3657;49.630;11.018;2022-12-18T11:16:26;34.83;;;26.87;;
7231;SDS011;3657;49.630;11.018;2022-12-18T11:19:13;41.67;;;28.07;;
7231;SDS011;3657;49.630;11.018;2022-12-18T11:21:47;45.40;;;31.27;;
7231;SDS011;3657;49.630;11.018;2022-12-18T11:24:25;35.83;;;26.13;;
7231;SDS011;3657;49.630;11.018;2022-12-18T11:26:55;36.17;;;26.67;;
7231;SDS011;3657;49.630;11.018;2022-12-18T11:29:27;32.90;;;26.03;;
7231;SDS011;3657;49.630;11.018;2022-12-18T11:32:13;32.30;;;25.30;;
7231;SDS011;3657;49.630;11.018;2022-12-18T11:35:04;32.33;;;24.93;;
7231;SDS011;3657;49.630;11.018;2022-12-18T11:37:38;32.10;;;24.83;;
7231;SDS011;3657;49.630;11.018;2022-12-18T11:40:10;29.77;;;23.37;;
7231;SDS011;3657;49.630;11.018;2022-12-18T11:42:41;40.50;;;33.47;;
7231;SDS011;3657;49.630;11.018;2022-12-18T11:45:28;33.07;;;26.97;;
7231;SDS011;3657;49.630;11.018;2022-12-18T11:47:59;32.27;;;24.97;;
7231;SDS011;3657;49.630;11.018;2022-12-18T11:50:31;34.67;;;25.50;;
7231;SDS011;3657;49.630;11.018;2022-12-18T11:53:09;32.43;;;24.63;;
7231;SDS011;3657;49.630;11.018;2022-12-18T11:55:41;32.47;;;24.67;;
7231;SDS011;3657;49.630;11.018;2022-12-18T11:58:20;33.73;;;24.60;;
7231;SDS011;3657;49.630;11.018;2022-12-18T12:00:58;29.43;;;23.13;;
7231;SDS011;3657;49.630;11.018;2022-12-18T12:03:39;30.43;;;24.77;;
7231;SDS011;3657;49.630;11.018;2022-12-18T12:06:28;32.43;;;23.63;;
7231;SDS011;3657;49.630;11.018;2022-12-18T12:09:02;29.43;;;23.10;;
7231;SDS011;3657;49.630;11.018;2022-12-18T12:11:40;33.00;;;25.43;;
7231;SDS011;3657;49.630;11.018;2022-12-18T12:14:17;31.13;;;23.37;;
7231;SDS011;3657;49.630;11.018;2022-12-18T12:16:55;32.30;;;24.63;;
7231;SDS011;3657;49.630;11.018;2022-12-18T12:19:31;29.17;;;23.80;;
7231;SDS011;3657;49.630;11.018;2022-12-18T12:22:06;30.73;;;24.17;;
7231;SDS011;3657;49.630;11.018;2022-12-18T12:24:48;37.80;;;27.47;;
7231;SDS011;3657;49.630;11.018;2022-12-18T12:27:25;31.37;;;24.40;;
7231;SDS011;3657;49.630;11.018;2022-12-18T12:30:00;31.70;;;25.93;;
7231;SDS011;3657;49.630;11.018;2022-12-18T12:32:40;34.83;;;26.10;;
7231;SDS011;3657;49.630;11.018;2022-12-18T12:35:22;30.77;;;25.10;;
7231;SDS011;3657;49.630;11.018;2022-12-18T12:38:00;29.57;;;23.80;;
7231;SDS011;3657;49.630;11.018;2022-12-18T12:40:33;32.43;;;25.07;;
7231;SDS011;3657;49.630;11.018;2022-12-18T12:43:03;31.57;;;25.13;;
7231;SDS011;3657;49.630;11.018;2022-12-18T12:45:42;29.57;;;24.00;;
7231;SDS011;3657;49.630;11.018;2022-12-18T12:48:19;29.53;;;23.93;;
7231;SDS011;3657;49.630;11.018;2022-12-18T12:50:51;34.30;;;25.77;;
7231;SDS011;3657;49.630;11.018;2022-12-18T12:53:22;32.67;;;24.37;;
7231;SDS011;3657;49.630;11.018;2022-12-18T12:55:52;30.57;;;24.60;;
7231;SDS011;3657;49.630;11.018;2022-12-18T12:58:22;33.23;;;23.63;;
7231;SDS011;3657;49.630;11.018;2022-12-18T13:01:00;32.17;;;24.30;;
7231;SDS011;3657;49.630;11.018;2022-12-18T13:03:40;30.03;;;22.57;;
7231;SDS011;3657;49.630;11.018;2022-12-18T13:06:13;26.57;;;21.63;;
7231;SDS011;3657;49.630;11.018;2022-12-18T13:08:53;32.17;;;25.50;;
7231;SDS011;3657;49.630;11.018;2022-12-18T13:11:31;32.87;;;24.30;;
7231;SDS011;3657;49.630;11.018;2022-12-18T13:14:20;30.43;;;23.03;;
7231;SDS011;3657;49.630;11.018;2022-12-18T13:16:49;27.30;;;22.50;;
7231;SDS011;3657;49.630;11.018;2022-12-18T13:19:22;30.03;;;24.63;;
7231;SDS011;3657;49.630;11.018;2022-12-18T13:21:52;28.80;;;24.30;;
7231;SDS011;3657;49.630;11.018;2022-12-18T13:24:22;29.67;;;23.13;;
7231;SDS011;3657;49.630;11.018;2022-12-18T13:26:52;30.07;;;23.47;;
7231;SDS011;3657;49.630;11.018;2022-12-18T13:32:20;29.93;;;23.73;;
7231;SDS011;3657;49.630;11.018;2022-12-18T13:34:49;27.27;;;23.73;;
7231;SDS011;3657;49.630;11.018;2022-12-18T13:37:56;29.50;;;22.87;;
7231;SDS011;3657;49.630;11.018;2022-12-18T13:43:31;30.07;;;23.47;;
7231;SDS011;3657;49.630;11.018;2022-12-18T13:46:03;27.83;;;22.63;;
7231;SDS011;3657;49.630;11.018;2022-12-18T13:48:48;29.43;;;23.37;;
7231;SDS011;3657;49.630;11.018;2022-12-18T13:51:21;28.83;;;22.67;;
7231;SDS011;3657;49.630;11.018;2022-12-18T13:53:52;29.00;;;22.60;;
7231;SDS011;3657;49.630;11.018;2022-12-18T13:56:22;27.33;;;23.37;;
7231;SDS011;3657;49.630;11.018;2022-12-18T13:59:09;29.93;;;23.83;;
7231;SDS011;3657;49.630;11.018;2022-12-18T14:01:44;29.33;;;23.93;;
7231;SDS011;3657;49.630;11.018;2022-12-18T14:04:17;27.50;;;23.13;;
7231;SDS011;3657;49.630;11.018;2022-12-18T14:06:46;26.80;;;22.73;;
7231;SDS011;3657;49.630;11.018;2022-12-18T14:09:23;24.03;;;21.13;;
7231;SDS011;3657;49.630;11.018;2022-12-18T14:11:52;28.37;;;23.50;;
7231;SDS011;3657;49.630;11.018;2022-12-18T14:14:41;31.60;;;25.67;;
7231;SDS011;3657;49.630;11.018;2022-12-18T14:17:10;31.70;;;25.03;;
7231;SDS011;3657;49.630;11.018;2022-12-18T14:19:40;30.33;;;24.03;;
7231;SDS011;3657;49.630;11.018;2022-12-18T14:22:12;31.33;;;24.33;;
7231;SDS011;3657;49.630;11.018;2022-12-18T14:24:43;30.90;;;24.07;;
7231;SDS011;3657;49.630;11.018;2022-12-18T14:27:20;27.80;;;23.83;;
7231;SDS011;3657;49.630;11.018;2022-12-18T14:29:49;32.90;;;25.03;;
7231;SDS011;3657;49.630;11.018;2022-12-18T14:32:17;22.43;;;20.03;;
7231;SDS011;3657;49.630;11.018;2022-12-18T14:34:46;29.07;;;23.50;;
7231;SDS011;3657;49.630;11.018;2022-12-18T14:37:15;26.43;;;21.83;;
7231;SDS011;3657;49.630;11.018;2022-12-18T14:39:54;28.30;;;22.57;;
7231;SDS011;3657;49.630;11.018;2022-12-18T14:42:22;28.50;;;23.20;;
7231;SDS011;3657;49.630;11.018;2022-12-18T14:47:52;33.40;;;24.77;;
7231;SDS011;3657;49.630;11.018;2022-12-18T14:50:19;30.67;;;23.37;;
7231;SDS011;3657;49.630;11.018;2022-12-18T14:52:46;27.97;;;23.57;;
7231;SDS011;3657;49.630;11.018;2022-12-18T14:55:16;30.40;;;24.13;;
7231;SDS011;3657;49.630;11.018;2022-12-18T14:57:44;43.67;;;31.80;;
7231;SDS011;3657;49.630;11.018;2022-12-18T15:00:15;30.97;;;23.87;;
7231;SDS011;3657;49.630;11.018;2022-12-18T15:02:44;32.20;;;26.33;;
7231;SDS011;3657;49.630;11.018;2022-12-18T15:05:17;30.43;;;23.83;;